Time;durP1;ratioP1;P1;durP2;ratioP2;P2;SDS_P1;SDS_P2;PMS_P1;PMS_P2;Temp;Humidity;BMP_temperature;BMP_pressure;BME280_temperature;BME280_humidity;BME280_pressure;Samples;Min_cycle;Max_cycle;Signal;HPM_P1;HPM_P2
2022/09/27 00:00:37;;;;;;;1.27;0.90;;;12.80;97.80;12.80;98812.00;;;;5000460;28;82280;-57
2022/09/27 00:03:03;;;;;;;1.63;0.80;;;12.80;98.10;12.80;98815.00;;;;5002072;28;103430;-56
2022/09/27 00:05:29;;;;;;;2.20;1.23;;;12.70;97.90;12.80;98811.00;;;;5003429;28;83443;-58
2022/09/27 00:07:55;;;;;;;0.80;0.80;;;12.80;97.90;12.80;98807.00;;;;5005546;28;109621;-57
2022/09/27 00:10:21;;;;;;;6.97;1.53;;;12.80;98.00;12.80;98809.00;;;;5007293;28;107945;-57
2022/09/27 00:12:47;;;;;;;1.20;1.10;;;12.70;98.00;12.80;98800.00;;;;5010202;28;82444;-58
2022/09/27 00:15:13;;;;;;;0.80;0.70;;;12.70;98.00;12.80;98797.00;;;;5006081;28;111060;-58
2022/09/27 00:17:40;;;;;;;0.93;0.93;;;12.70;98.10;12.80;98784.00;;;;5008256;28;110377;-58
2022/09/27 00:20:08;;;;;;;0.97;0.90;;;12.70;98.20;12.80;98782.00;;;;5000914;28;82376;-57
2022/09/27 00:22:34;;;;;;;1.63;1.10;;;12.70;98.40;12.70;98781.00;;;;5004942;28;82893;-58
2022/09/27 00:24:59;;;;;;;0.67;0.67;;;12.70;98.50;12.70;98771.00;;;;5005652;28;111025;-57
2022/09/27 00:27:26;;;;;;;1.30;0.67;;;12.70;98.60;12.80;98771.00;;;;5008571;28;110395;-58
2022/09/27 00:29:52;;;;;;;3.53;1.10;;;12.70;98.60;12.80;98773.00;;;;5011351;28;82411;-57
2022/09/27 00:32:18;;;;;;;1.13;0.73;;;12.70;98.70;12.70;98772.00;;;;5013927;28;100807;-58
2022/09/27 00:34:44;;;;;;;0.60;0.60;;;12.70;98.70;12.80;98761.00;;;;5014187;28;112767;-58
2022/09/27 00:37:10;;;;;;;1.23;1.00;;;12.70;98.80;12.70;98756.00;;;;5013433;28;97754;-57
2022/09/27 00:39:40;;;;;;;2.00;1.17;;;12.70;98.80;12.80;98755.00;;;;5007811;28;82692;-55
2022/09/27 00:42:10;;;;;;;1.53;1.03;;;12.70;98.90;12.80;98756.00;;;;5004319;28;83510;-58
2022/09/27 00:44:39;;;;;;;4.77;1.20;;;12.70;98.90;12.80;98753.00;;;;5007454;28;83192;-56
2022/09/27 00:47:34;;;;;;;0.63;0.63;;;12.70;99.00;12.80;98744.00;;;;5008020;28;101517;-58
2022/09/27 00:50:18;;;;;;;1.30;0.80;;;12.70;98.90;12.80;98747.00;;;;5010439;28;82565;-58
2022/09/27 00:53:09;;;;;;;1.70;0.80;;;12.80;99.00;12.80;98735.00;;;;5014955;28;83490;-58
2022/09/27 00:55:45;;;;;;;2.13;0.70;;;12.70;99.00;12.80;98729.00;;;;5013262;28;82563;-57
2022/09/27 00:58:14;;;;;;;1.43;0.90;;;12.80;99.00;12.80;98729.00;;;;5011175;28;82484;-57
2022/09/27 01:00:46;;;;;;;0.97;0.80;;;12.80;99.00;12.90;98724.00;;;;5012468;28;107975;-57
2022/09/27 01:03:29;;;;;;;1.13;0.97;;;12.80;99.00;12.90;98729.00;;;;5005610;28;105575;-57
2022/09/27 01:05:57;;;;;;;0.70;0.70;;;12.80;99.00;12.90;98719.00;;;;5024232;28;98502;-58
2022/09/27 01:08:22;;;;;;;2.73;1.10;;;12.80;98.90;12.90;98725.00;;;;5013327;28;82923;-57
2022/09/27 01:11:19;;;;;;;1.90;0.67;;;12.80;98.90;12.90;98712.00;;;;5013023;28;107139;-57
2022/09/27 01:14:26;;;;;;;1.33;1.07;;;12.80;98.80;12.90;98711.00;;;;5007190;28;83296;-58
2022/09/27 01:17:06;;;;;;;0.83;0.57;;;12.90;98.70;13.00;98712.00;;;;5010407;28;93779;-57
2022/09/27 01:20:18;;;;;;;1.03;0.73;;;12.90;99.10;12.90;98715.00;;;;5003312;28;82130;-57
2022/09/27 01:23:23;;;;;;;0.80;0.80;;;12.90;98.70;12.90;98706.00;;;;5006676;28;84017;-57
2022/09/27 01:26:13;;;;;;;0.67;0.67;;;12.90;98.70;13.00;98697.00;;;;5008452;28;83417;-55
2022/09/27 01:29:18;;;;;;;1.43;0.90;;;12.90;98.60;13.00;98689.00;;;;5011910;28;83163;-58
2022/09/27 01:32:03;;;;;;;0.50;0.50;;;12.90;98.50;13.00;98693.00;;;;5010959;28;82313;-57
2022/09/27 01:34:47;;;;;;;0.57;0.57;;;12.90;98.60;13.00;98686.00;;;;5009812;28;82639;-57
2022/09/27 01:38:12;;;;;;;0.90;0.60;;;12.90;98.50;12.90;98680.00;;;;5003136;28;84923;-55
2022/09/27 01:41:19;;;;;;;0.87;0.73;;;13.00;98.50;13.00;98676.00;;;;4977519;28;103893;-58
2022/09/27 01:43:59;;;;;;;1.60;0.60;;;13.00;98.50;13.00;98663.00;;;;5007436;28;81994;-57
2022/09/27 01:46:32;;;;;;;2.27;1.03;;;13.00;98.50;13.00;98662.00;;;;5008384;28;102421;-58
2022/09/27 01:49:05;;;;;;;0.73;0.70;;;13.00;98.40;13.00;98663.00;;;;5006137;28;96730;-58
2022/09/27 01:51:39;;;;;;;1.07;0.97;;;12.90;98.40;13.00;98663.00;;;;5029793;28;88156;-58
2022/09/27 01:54:08;;;;;;;0.63;0.60;;;13.00;98.40;13.00;98656.00;;;;5001268;28;82741;-58
2022/09/27 01:56:47;;;;;;;0.97;0.87;;;13.00;98.40;13.00;98666.00;;;;5010845;28;100884;-58
2022/09/27 01:59:28;;;;;;;0.60;0.60;;;13.00;98.30;13.10;98658.00;;;;5003831;28;84070;-58
2022/09/27 02:01:58;;;;;;;0.60;0.50;;;13.00;98.30;13.10;98647.00;;;;5006304;28;83380;-57
2022/09/27 02:04:29;;;;;;;0.60;0.60;;;13.00;98.30;13.10;98648.00;;;;5010601;28;83352;-58
2022/09/27 02:07:03;;;;;;;0.73;0.73;;;13.00;98.30;13.10;98644.00;;;;5025278;28;100997;-57
2022/09/27 02:09:37;;;;;;;1.70;0.87;;;13.00;98.30;13.10;98653.00;;;;5008957;28;104340;-57
2022/09/27 02:12:09;;;;;;;1.63;1.00;;;13.00;98.30;13.00;98646.00;;;;5028431;28;82530;-57
2022/09/27 02:14:44;;;;;;;1.30;0.83;;;13.00;98.40;13.00;98632.00;;;;5007826;28;102256;-55
2022/09/27 02:17:36;;;;;;;0.80;0.70;;;13.00;98.60;13.00;98627.00;;;;5004549;28;99753;-58
2022/09/27 02:20:26;;;;;;;0.60;0.60;;;13.00;98.70;13.00;98629.00;;;;5010661;28;102888;-58
2022/09/27 02:23:04;;;;;;;0.70;0.60;;;13.00;98.80;13.00;98622.00;;;;5009998;28;82311;-58
2022/09/27 02:26:03;;;;;;;0.67;0.67;;;12.90;98.90;12.90;98624.00;;;;5009175;28;82441;-57
2022/09/27 02:28:41;;;;;;;0.80;0.73;;;12.90;99.00;12.90;98616.00;;;;5028131;28;82088;-57
2022/09/27 02:31:08;;;;;;;0.60;0.60;;;12.90;99.10;12.90;98611.00;;;;5009193;28;83529;-58
2022/09/27 02:33:41;;;;;;;0.87;0.83;;;12.90;99.20;12.90;98611.00;;;;5008373;28;84494;-58
2022/09/27 02:36:08;;;;;;;0.40;0.40;;;12.90;99.30;12.90;98608.00;;;;5006708;28;100613;-58
2022/09/27 02:38:34;;;;;;;1.07;0.73;;;12.80;99.30;12.90;98611.00;;;;5006494;28;82271;-58
2022/09/27 02:41:00;;;;;;;0.70;0.67;;;12.80;99.30;12.90;98607.00;;;;5002684;28;111361;-58
2022/09/27 02:43:30;;;;;;;0.77;0.70;;;12.80;99.40;12.90;98609.00;;;;5007547;28;83195;-58
2022/09/27 02:46:58;;;;;;;0.47;0.37;;;12.90;99.50;12.80;98604.00;;;;5008260;28;97303;-58
2022/09/27 02:49:33;;;;;;;0.40;0.40;;;12.80;99.60;12.90;98596.00;;;;5012965;28;81591;-58
2022/09/27 02:52:23;;;;;;;0.53;0.53;;;12.80;99.40;12.90;98593.00;;;;5002608;28;97298;-58
2022/09/27 02:55:51;;;;;;;1.13;0.80;;;12.80;99.50;12.80;98594.00;;;;5002407;28;82370;-58
2022/09/27 02:58:32;;;;;;;1.93;0.80;;;12.80;99.50;12.90;98594.00;;;;4984519;28;83246;-58
2022/09/27 03:01:19;;;;;;;1.67;0.70;;;12.80;99.50;12.90;98591.00;;;;5001051;28;96167;-56
2022/09/27 03:04:01;;;;;;;0.40;0.40;;;12.80;99.60;12.90;98589.00;;;;5007476;28;83900;-58
2022/09/27 03:06:28;;;;;;;1.17;0.67;;;12.80;99.50;12.90;98579.00;;;;5026288;28;107450;-58
2022/09/27 03:08:55;;;;;;;2.43;0.80;;;12.80;99.50;12.80;98582.00;;;;5027470;28;109733;-57
2022/09/27 03:11:21;;;;;;;1.37;0.50;;;12.80;99.60;12.80;98575.00;;;;5010202;28;81932;-58
2022/09/27 03:13:47;;;;;;;0.40;0.40;;;12.80;99.80;12.80;98582.00;;;;5007027;28;111591;-60
2022/09/27 03:16:14;;;;;;;0.70;0.70;;;12.80;99.90;12.80;98577.00;;;;5005957;28;83275;-58
2022/09/27 03:18:41;;;;;;;0.40;0.40;;;12.70;99.90;12.80;98565.00;;;;5004008;28;82428;-58
2022/09/27 03:21:06;;;;;;;0.60;0.40;;;12.70;99.90;12.70;98573.00;;;;5006571;28;92869;-56
2022/09/27 03:23:32;;;;;;;2.47;0.70;;;12.70;99.90;12.70;98571.00;;;;5008564;28;87119;-57
2022/09/27 03:25:58;;;;;;;0.50;0.50;;;12.70;99.90;12.70;98568.00;;;;5011449;28;83200;-58
2022/09/27 03:28:24;;;;;;;1.83;0.80;;;12.70;99.90;12.70;98570.00;;;;5012035;28;110517;-57
2022/09/27 03:30:50;;;;;;;1.03;0.80;;;12.70;99.90;12.70;98569.00;;;;5011301;28;82423;-58
2022/09/27 03:33:16;;;;;;;0.93;0.50;;;12.70;99.90;12.60;98565.00;;;;5006393;28;101966;-58
2022/09/27 03:35:42;;;;;;;1.50;0.73;;;12.60;99.90;12.60;98565.00;;;;5005802;28;90233;-58
2022/09/27 03:38:09;;;;;;;1.00;0.90;;;12.60;99.90;12.60;98558.00;;;;5004164;28;81885;-58
2022/09/27 03:40:35;;;;;;;1.60;0.93;;;12.50;99.90;12.50;98567.00;;;;5007666;28;81532;-58
2022/09/27 03:43:01;;;;;;;1.67;1.13;;;12.50;99.90;12.50;98557.00;;;;5006346;28;113175;-58
2022/09/27 03:45:27;;;;;;;3.50;1.00;;;12.50;99.90;12.50;98549.00;;;;5011099;28;83777;-58
2022/09/27 03:47:53;;;;;;;1.90;1.10;;;12.40;99.90;12.40;98545.00;;;;5011490;28;109738;-59
2022/09/27 03:50:19;;;;;;;1.13;0.73;;;12.40;99.90;12.40;98547.00;;;;5010386;28;82183;-57
2022/09/27 03:52:45;;;;;;;1.63;1.20;;;12.40;99.90;12.40;98551.00;;;;5007576;28;107306;-59
2022/09/27 03:55:12;;;;;;;2.33;0.97;;;12.40;99.90;12.40;98543.00;;;;5005135;28;83431;-59
2022/09/27 03:57:38;;;;;;;1.90;1.43;;;12.30;99.90;12.20;98549.00;;;;5006665;28;81796;-58
2022/09/27 04:00:05;;;;;;;0.90;0.90;;;12.30;99.90;12.10;98542.00;;;;5009618;28;82353;-58
2022/09/27 04:02:31;;;;;;;2.03;1.27;;;12.20;99.90;12.00;98527.00;;;;5010790;28;91426;-58
2022/09/27 04:04:57;;;;;;;3.13;1.20;;;12.00;99.90;11.90;98524.00;;;;5014404;28;111671;-58
2022/09/27 04:07:23;;;;;;;2.37;1.03;;;11.90;99.90;11.80;98522.00;;;;5016524;28;82192;-57
2022/09/27 04:09:48;;;;;;;3.47;1.23;;;11.80;99.90;11.70;98530.00;;;;5012047;28;108433;-59
2022/09/27 04:12:14;;;;;;;2.27;1.47;;;11.80;99.90;11.70;98525.00;;;;5009996;28;113746;-59
2022/09/27 04:14:40;;;;;;;1.10;1.00;;;11.70;99.90;11.60;98535.00;;;;5005636;28;112630;-60
2022/09/27 04:17:06;;;;;;;1.27;1.07;;;11.60;99.90;11.50;98525.00;;;;5008489;28;82400;-60
2022/09/27 04:19:32;;;;;;;2.23;0.87;;;11.60;99.90;11.50;98520.00;;;;5009361;28;93466;-60
2022/09/27 04:21:57;;;;;;;1.37;1.10;;;11.50;99.90;11.40;98529.00;;;;5011895;28;113804;-60
2022/09/27 04:24:24;;;;;;;1.03;0.93;;;11.50;99.90;11.40;98520.00;;;;5014196;28;111775;-60
2022/09/27 04:26:50;;;;;;;1.93;1.50;;;11.40;99.90;11.30;98527.00;;;;5015763;28;81752;-59
2022/09/27 04:29:16;;;;;;;2.07;1.33;;;11.30;99.90;11.30;98523.00;;;;5012678;28;81322;-60
2022/09/27 04:31:45;;;;;;;1.47;1.07;;;11.30;99.90;11.20;98521.00;;;;5008575;28;111671;-60
2022/09/27 04:34:11;;;;;;;1.77;1.07;;;11.30;99.90;11.20;98523.00;;;;5007941;28;82380;-60
2022/09/27 04:36:37;;;;;;;1.30;1.00;;;11.20;99.90;11.20;98523.00;;;;5007622;28;111252;-60
2022/09/27 04:39:05;;;;;;;1.33;1.10;;;11.20;99.90;11.10;98518.00;;;;5008643;28;82420;-59
2022/09/27 04:41:31;;;;;;;3.13;1.57;;;11.10;99.90;11.10;98519.00;;;;5013023;28;82328;-59
2022/09/27 04:43:59;;;;;;;1.67;1.50;;;11.20;99.90;11.10;98519.00;;;;5014128;28;112131;-59
2022/09/27 04:46:25;;;;;;;3.43;1.60;;;11.10;99.90;11.10;98521.00;;;;5015403;28;82463;-58
2022/09/27 04:48:50;;;;;;;4.10;1.23;;;11.10;99.90;11.10;98521.00;;;;5011265;28;100266;-59
2022/09/27 04:51:17;;;;;;;2.07;1.40;;;11.10;99.90;11.10;98520.00;;;;5009557;28;98068;-59
2022/09/27 04:53:43;;;;;;;1.33;1.17;;;11.10;99.90;11.10;98524.00;;;;5007237;28;83241;-59
2022/09/27 04:56:11;;;;;;;1.70;1.03;;;11.10;99.90;11.10;98527.00;;;;5005205;28;82527;-60
2022/09/27 04:58:37;;;;;;;2.47;1.73;;;11.00;99.90;11.00;98526.00;;;;5007221;28;82254;-59
2022/09/27 05:01:03;;;;;;;2.63;1.67;;;11.10;99.90;11.00;98522.00;;;;5011773;28;86335;-60
2022/09/27 05:03:30;;;;;;;2.03;1.57;;;11.00;99.90;11.00;98519.00;;;;5014968;28;82612;-61
2022/09/27 05:05:56;;;;;;;1.90;1.63;;;11.00;99.90;11.00;98526.00;;;;5009103;28;82258;-60
2022/09/27 05:08:22;;;;;;;1.87;1.33;;;11.00;99.90;11.00;98523.00;;;;5008621;28;101801;-61
2022/09/27 05:10:48;;;;;;;1.13;1.07;;;11.00;99.90;11.00;98521.00;;;;5006424;28;108222;-61
2022/09/27 05:13:14;;;;;;;1.63;1.40;;;11.00;99.90;11.00;98528.00;;;;5008648;28;81960;-60
2022/09/27 05:15:41;;;;;;;2.80;1.77;;;11.00;99.90;11.00;98518.00;;;;5002772;28;110498;-61
2022/09/27 05:18:08;;;;;;;1.90;1.37;;;10.90;99.90;11.00;98525.00;;;;5009423;28;84107;-63
2022/09/27 05:20:38;;;;;;;1.90;1.17;;;10.90;99.90;10.90;98526.00;;;;5007511;28;83682;-62
2022/09/27 05:23:04;;;;;;;2.63;1.70;;;10.90;99.90;10.90;98525.00;;;;5011784;28;83304;-63
2022/09/27 05:25:30;;;;;;;1.60;1.50;;;10.90;99.90;10.90;98521.00;;;;5010554;28;109876;-63
2022/09/27 05:27:57;;;;;;;2.77;1.97;;;10.90;99.90;10.90;98520.00;;;;5011824;28;84302;-63
2022/09/27 05:30:24;;;;;;;2.47;2.07;;;10.90;99.90;10.90;98519.00;;;;5008926;28;82340;-62
2022/09/27 05:32:51;;;;;;;2.37;1.63;;;10.90;99.90;10.90;98518.00;;;;5007245;28;83447;-62
2022/09/27 05:35:18;;;;;;;2.10;1.87;;;10.90;99.90;10.90;98525.00;;;;5003667;28;82118;-63
2022/09/27 05:37:52;;;;;;;2.23;2.03;;;10.90;99.90;10.90;98514.00;;;;5006742;28;82276;-62
2022/09/27 05:40:17;;;;;;;2.77;2.50;;;10.90;99.90;10.90;98513.00;;;;5010995;28;82694;-62
2022/09/27 05:42:43;;;;;;;2.10;1.90;;;10.90;99.90;10.90;98515.00;;;;5014211;28;111861;-63
2022/09/27 05:45:09;;;;;;;1.93;1.73;;;10.90;99.90;10.90;98518.00;;;;5010731;28;110047;-65
2022/09/27 05:47:35;;;;;;;2.03;1.83;;;10.90;99.90;10.90;98516.00;;;;5005894;28;102498;-65
2022/09/27 05:50:01;;;;;;;3.97;2.30;;;10.90;99.90;10.90;98508.00;;;;5008871;28;112525;-65
2022/09/27 05:52:26;;;;;;;5.17;2.33;;;11.00;99.90;10.90;98513.00;;;;5003752;28;111849;-65
2022/09/27 05:54:52;;;;;;;4.30;2.13;;;10.90;99.90;10.90;98507.00;;;;5006960;28;82337;-66
2022/09/27 05:57:17;;;;;;;4.27;2.67;;;10.90;99.90;10.90;98519.00;;;;5001573;28;109350;-66
2022/09/27 05:59:43;;;;;;;3.03;2.37;;;10.90;99.90;10.90;98514.00;;;;5011016;28;112298;-66
2022/09/27 06:02:12;;;;;;;2.07;1.90;;;10.90;99.90;10.90;98525.00;;;;5010155;28;111935;-67
2022/09/27 06:04:37;;;;;;;2.47;2.13;;;10.90;99.90;11.00;98523.00;;;;5011639;28;98275;-66
2022/09/27 06:07:03;;;;;;;3.50;2.23;;;10.90;99.90;10.90;98506.00;;;;5008414;28;108445;-65
2022/09/27 06:09:29;;;;;;;1.93;1.73;;;10.90;99.90;11.00;98509.00;;;;5001415;28;111227;-66
2022/09/27 06:11:55;;;;;;;3.50;1.83;;;11.00;99.90;10.90;98514.00;;;;5001811;28;113088;-66
2022/09/27 06:14:21;;;;;;;4.43;1.77;;;10.90;99.90;11.00;98514.00;;;;5001716;28;83625;-67
2022/09/27 06:16:47;;;;;;;4.67;2.63;;;10.90;99.90;11.00;98518.00;;;;5007753;28;107606;-67
2022/09/27 06:19:12;;;;;;;3.43;2.50;;;10.90;99.90;11.00;98511.00;;;;5011713;27;83470;-67
2022/09/27 06:21:38;;;;;;;2.43;2.17;;;11.00;99.90;10.90;98514.00;;;;5002609;28;110245;-67
2022/09/27 06:24:04;;;;;;;2.20;2.00;;;10.90;99.90;10.90;98509.00;;;;5004012;28;102353;-67
2022/09/27 06:26:29;;;;;;;2.07;1.83;;;10.90;99.90;10.90;98519.00;;;;5010661;28;82574;-68
2022/09/27 06:28:55;;;;;;;3.87;2.33;;;10.90;99.90;10.90;98515.00;;;;5005493;28;112766;-67
2022/09/27 06:31:21;;;;;;;2.13;1.97;;;10.90;99.90;10.90;98514.00;;;;5005238;28;82213;-67
2022/09/27 06:33:48;;;;;;;2.37;2.17;;;11.00;99.90;11.00;98519.00;;;;5000896;28;82706;-67
2022/09/27 06:36:14;;;;;;;2.57;2.20;;;10.90;99.90;11.00;98517.00;;;;5008341;28;82386;-68
2022/09/27 06:38:40;;;;;;;2.63;2.40;;;10.90;99.90;11.00;98517.00;;;;5025471;27;112867;-69
2022/09/27 06:41:06;;;;;;;3.43;1.87;;;10.90;99.90;11.00;98521.00;;;;5011833;28;84224;-68
2022/09/27 06:43:33;;;;;;;4.37;2.70;;;11.00;99.90;11.00;98520.00;;;;5001222;28;82537;-69
2022/09/27 06:46:06;;;;;;;4.10;2.37;;;11.00;99.90;11.00;98523.00;;;;5005809;28;82408;-69
2022/09/27 06:48:32;;;;;;;4.43;3.07;;;11.00;99.90;11.10;98522.00;;;;5003754;28;82740;-69
2022/09/27 06:50:58;;;;;;;6.10;2.27;;;11.00;99.90;11.10;98510.00;;;;5007306;28;92440;-68
2022/09/27 06:53:25;;;;;;;6.67;2.70;;;11.10;99.90;11.10;98502.00;;;;5023592;27;82563;-68
2022/09/27 06:55:51;;;;;;;3.00;2.80;;;11.10;99.90;11.10;98505.00;;;;5002921;28;82007;-69
2022/09/27 07:01:02;;;;;;;5.67;2.37;;;11.10;99.90;11.10;98507.00;;;;5002609;28;82637;-69
2022/09/27 07:03:31;;;;;;;3.43;2.50;;;11.10;99.90;11.10;98513.00;;;;5043419;27;83330;-69
2022/09/27 07:06:03;;;;;;;4.17;2.70;;;11.10;99.90;11.20;98517.00;;;;5002085;28;82280;-69
2022/09/27 07:08:29;;;;;;;2.70;2.47;;;11.10;99.90;11.20;98510.00;;;;4998301;28;83600;-69
2022/09/27 07:11:01;;;;;;;6.10;3.20;;;11.20;99.90;11.20;98505.00;;;;4998673;28;83594;-70
2022/09/27 07:13:33;;;;;;;2.53;2.33;;;11.20;99.90;11.30;98501.00;;;;5010248;28;82829;-69
2022/09/27 07:15:59;;;;;;;2.37;2.17;;;11.30;99.90;11.30;98506.00;;;;5011093;28;82609;-68
2022/09/27 07:18:26;;;;;;;4.30;2.60;;;11.30;99.90;11.40;98506.00;;;;5006519;28;82494;-69
2022/09/27 07:20:52;;;;;;;3.43;2.20;;;11.30;99.90;11.40;98504.00;;;;5009906;28;92520;-68
2022/09/27 07:23:19;;;;;;;3.60;2.60;;;11.40;99.90;11.50;98501.00;;;;5006155;28;101984;-68
2022/09/27 07:25:46;;;;;;;4.43;2.87;;;11.50;99.90;11.60;98493.00;;;;5007801;28;82677;-69
2022/09/27 07:28:15;;;;;;;3.00;2.70;;;11.50;99.90;11.70;98498.00;;;;5006625;28;84149;-69
2022/09/27 07:30:41;;;;;;;6.20;3.27;;;11.60;99.90;11.80;98502.00;;;;4998009;28;83248;-69
2022/09/27 07:33:08;;;;;;;3.13;2.83;;;11.70;99.90;11.90;98522.00;;;;5004781;28;82340;-69
2022/09/27 07:35:38;;;;;;;4.17;3.47;;;11.80;99.90;12.00;98535.00;;;;5012185;28;82732;-69
2022/09/27 07:38:07;;;;;;;3.87;3.20;;;11.90;99.90;12.00;98523.00;;;;5015002;28;83393;-69
2022/09/27 07:40:35;;;;;;;2.07;1.90;;;12.00;99.90;12.10;98522.00;;;;5008830;28;83244;-69
2022/09/27 07:43:01;;;;;;;4.17;3.17;;;12.00;99.90;12.10;98530.00;;;;5006348;28;91738;-69
2022/09/27 07:45:27;;;;;;;2.57;2.37;;;12.00;99.90;12.10;98518.00;;;;5006879;28;81235;-69
2022/09/27 07:47:53;;;;;;;4.67;2.90;;;12.50;99.90;12.10;98516.00;;;;5008010;28;87907;-68
2022/09/27 07:50:19;;;;;;;3.47;2.80;;;12.00;99.90;12.10;98523.00;;;;5027420;27;83271;-67
2022/09/27 07:52:50;;;;;;;3.20;2.90;;;12.10;99.90;12.20;98512.00;;;;5001406;28;90789;-69
2022/09/27 07:55:17;;;;;;;3.57;3.27;;;12.10;99.90;12.30;98518.00;;;;5005478;28;82535;-67
2022/09/27 07:57:45;;;;;;;5.43;3.20;;;12.20;99.90;12.40;98521.00;;;;5011084;28;83072;-67
2022/09/27 08:00:14;;;;;;;5.47;3.67;;;12.30;99.90;12.50;98525.00;;;;5014346;28;82396;-68
2022/09/27 08:02:42;;;;;;;2.50;2.07;;;12.40;99.90;12.60;98525.00;;;;5005239;28;82328;-68
2022/09/27 08:05:09;;;;;;;2.77;2.50;;;12.50;99.90;12.70;98515.00;;;;5003170;28;81968;-68
2022/09/27 08:07:37;;;;;;;3.63;2.97;;;12.60;99.90;12.70;98518.00;;;;5004016;28;83229;-68
2022/09/27 08:10:04;;;;;;;2.90;2.20;;;12.70;99.90;12.80;98511.00;;;;5007925;28;83323;-67
2022/09/27 08:12:30;;;;;;;6.77;2.93;;;12.70;99.90;12.80;98517.00;;;;5009374;27;82210;-67
2022/09/27 08:15:00;;;;;;;4.30;2.97;;;12.70;99.90;12.80;98518.00;;;;5003888;28;89057;-67
2022/09/27 08:17:29;;;;;;;3.70;2.77;;;12.70;99.90;12.80;98519.00;;;;5007384;28;84811;-68
2022/09/27 08:19:55;;;;;;;2.83;2.40;;;12.70;99.90;12.80;98520.00;;;;5001941;28;104985;-67
2022/09/27 08:22:21;;;;;;;2.40;1.97;;;12.70;99.90;12.80;98524.00;;;;5008266;28;82852;-67
2022/09/27 08:24:47;;;;;;;3.47;2.17;;;12.80;99.90;12.80;98517.00;;;;5005018;28;82410;-67
2022/09/27 08:27:14;;;;;;;2.50;1.97;;;12.70;99.90;12.80;98520.00;;;;5000957;28;97498;-67
2022/09/27 08:29:40;;;;;;;4.60;2.63;;;12.70;99.90;12.70;98514.00;;;;5002214;28;99723;-67
2022/09/27 08:32:11;;;;;;;2.53;2.30;;;12.70;99.90;12.70;98509.00;;;;5007647;28;82727;-67
2022/09/27 08:34:37;;;;;;;3.17;2.87;;;12.70;99.90;12.80;98511.00;;;;5008489;28;81754;-67
2022/09/27 08:37:03;;;;;;;4.70;2.37;;;12.70;99.90;12.80;98517.00;;;;5010114;28;105501;-68
2022/09/27 08:39:28;;;;;;;2.33;2.13;;;12.70;99.90;12.80;98521.00;;;;5004136;28;82608;-66
2022/09/27 08:42:38;;;;;;;2.60;2.33;;;12.70;99.90;12.80;98520.00;;;;5003979;28;109756;-66
2022/09/27 08:45:28;;;;;;;3.97;2.50;;;12.80;99.90;12.90;98517.00;;;;5008222;28;82565;-67
2022/09/27 08:47:59;;;;;;;2.40;2.10;;;12.90;99.90;13.00;98522.00;;;;5024747;27;83785;-68
2022/09/27 08:50:27;;;;;;;3.03;2.40;;;12.90;99.90;13.00;98520.00;;;;5003292;28;81949;-67
2022/09/27 08:53:04;;;;;;;3.03;2.17;;;13.00;99.90;13.10;98525.00;;;;5007687;28;82401;-66
2022/09/27 08:55:39;;;;;;;2.70;2.47;;;13.00;99.90;13.20;98512.00;;;;5013662;28;82330;-67
2022/09/27 08:58:15;;;;;;;3.90;3.17;;;13.10;99.90;13.30;98527.00;;;;5016571;28;82582;-67
2022/09/27 09:00:42;;;;;;;3.90;2.50;;;13.20;99.90;13.40;98529.00;;;;5001574;28;82462;-68
2022/09/27 09:03:18;;;;;;;3.63;3.00;;;13.30;99.90;13.60;98525.00;;;;5002792;28;82480;-68
2022/09/27 09:06:08;;;;;;;2.40;1.90;;;13.50;99.90;13.70;98521.00;;;;5011015;28;82360;-66
2022/09/27 09:09:04;;;;;;;1.97;1.77;;;13.60;99.90;13.70;98516.00;;;;5010102;28;85545;-67
2022/09/27 09:14:54;;;;;;;3.40;1.53;;;13.60;99.90;13.70;98514.00;;;;5008694;28;82424;-67
2022/09/27 09:17:45;;;;;;;0.93;0.93;;;13.60;99.90;13.70;98529.00;;;;5005928;28;82026;-68
2022/09/27 09:20:57;;;;;;;1.37;1.10;;;13.60;99.90;13.70;98525.00;;;;5011829;28;82621;-66
2022/09/27 09:23:56;;;;;;;0.90;0.90;;;13.60;99.90;13.80;98525.00;;;;4998843;28;82649;-67
2022/09/27 09:26:42;;;;;;;1.93;1.17;;;13.70;99.90;13.90;98511.00;;;;5022170;27;104913;-66
2022/09/27 09:30:15;;;;;;;4.03;0.93;;;13.80;99.90;13.90;98515.00;;;;5008143;28;100986;-65
2022/09/27 09:32:58;;;;;;;1.90;1.10;;;13.90;99.90;14.00;98517.00;;;;5012213;28;83653;-65
2022/09/27 09:35:36;;;;;;;0.70;0.60;;;13.90;99.90;14.10;98524.00;;;;5009307;28;82657;-65
2022/09/27 09:38:10;;;;;;;0.80;0.80;;;14.00;99.90;14.20;98518.00;;;;5003165;28;83423;-63
2022/09/27 09:40:46;;;;;;;0.90;0.50;;;14.10;99.90;14.30;98506.00;;;;5036932;27;98658;-63
2022/09/27 09:43:19;;;;;;;0.20;0.20;;;14.20;99.90;14.30;98503.00;;;;5035594;27;83538;-64
2022/09/27 09:45:51;;;;;;;0.43;0.43;;;14.20;99.90;14.40;98504.00;;;;5005357;28;83067;-63
2022/09/27 09:48:54;;;;;;;0.30;0.30;;;14.30;99.90;14.50;98505.00;;;;5004138;28;82489;-63
2022/09/27 09:51:28;;;;;;;0.20;0.20;;;14.40;99.90;14.60;98500.00;;;;5004641;28;82602;-63
2022/09/27 09:54:03;;;;;;;0.20;0.20;;;14.50;99.90;14.70;98505.00;;;;5043257;27;82643;-63
2022/09/27 09:56:33;;;;;;;0.28;0.28;;;14.60;99.90;14.80;98505.00;;;;5008503;28;82669;-63
2022/09/27 09:59:14;;;;;;;0.50;0.43;;;14.70;99.90;14.80;98513.00;;;;4997785;28;92783;-63
2022/09/27 10:01:43;;;;;;;1.60;0.70;;;14.70;99.90;14.80;98501.00;;;;5009135;28;99374;-63
2022/09/27 10:04:28;;;;;;;0.32;0.30;;;14.70;99.90;14.60;98505.00;;;;5009109;28;102443;-63
2022/09/27 10:06:57;;;;;;;0.63;0.50;;;14.60;99.90;14.40;98504.00;;;;5008834;28;84201;-63
2022/09/27 10:09:26;;;;;;;0.30;0.30;;;14.40;99.90;14.30;98512.00;;;;5004965;28;82462;-63
2022/09/27 10:11:52;;;;;;;2.73;0.63;;;14.30;99.90;14.20;98508.00;;;;5004663;28;87969;-61
2022/09/27 10:14:20;;;;;;;0.57;0.27;;;14.20;99.90;14.10;98499.00;;;;5008526;28;83824;-62
2022/09/27 10:16:53;;;;;;;0.73;0.50;;;14.10;99.90;14.00;98504.00;;;;5013457;28;82374;-63
2022/09/27 10:19:30;;;;;;;0.47;0.40;;;14.00;99.90;14.00;98501.00;;;;5000517;28;82602;-62
2022/09/27 10:22:12;;;;;;;0.67;0.50;;;13.90;99.90;14.00;98505.00;;;;5018323;27;81549;-62
2022/09/27 10:25:07;;;;;;;0.20;0.20;;;14.00;99.90;14.10;98506.00;;;;5008593;28;84800;-62
2022/09/27 10:27:46;;;;;;;1.60;0.57;;;14.00;99.90;14.50;98515.00;;;;4982769;28;84980;-62
2022/09/27 10:30:34;;;;;;;1.03;0.47;;;14.20;99.90;14.80;98508.00;;;;5007816;28;83329;-62
2022/09/27 10:33:13;;;;;;;0.20;0.20;;;14.60;99.90;15.00;98508.00;;;;5009150;28;85007;-62
2022/09/27 10:35:44;;;;;;;0.25;0.25;;;14.80;99.90;15.20;98502.00;;;;5008089;28;98402;-62
2022/09/27 10:38:21;;;;;;;0.10;0.10;;;15.00;99.90;15.30;98497.00;;;;5009971;28;82401;-62
2022/09/27 10:40:52;;;;;;;0.20;0.20;;;15.10;99.90;15.40;98504.00;;;;5005799;28;82197;-61
2022/09/27 10:43:34;;;;;;;0.60;0.35;;;15.30;99.90;15.70;98492.00;;;;5001419;28;82310;-60
2022/09/27 10:46:19;;;;;;;1.13;0.50;;;15.40;99.90;16.20;98487.00;;;;5003238;28;82580;-61
2022/09/27 10:48:45;;;;;;;0.45;0.38;;;15.90;99.90;16.70;98487.00;;;;5022624;27;83230;-61
2022/09/27 10:51:25;;;;;;;0.20;0.20;;;16.40;99.90;17.20;98494.00;;;;5027161;27;82404;-60
2022/09/27 10:53:51;;;;;;;0.17;0.17;;;16.80;99.90;17.20;98497.00;;;;5026301;27;82351;-60
2022/09/27 10:56:26;;;;;;;0.20;0.20;;;17.10;99.90;16.80;98530.00;;;;5000802;28;83519;-62
2022/09/27 10:58:52;;;;;;;0.00;0.00;;;16.90;99.90;15.60;98536.00;;;;5000589;28;83067;-63
2022/09/27 11:01:18;;;;;;;0.10;0.10;;;16.00;99.90;14.50;98544.00;;;;5007407;28;82441;-65
2022/09/27 11:03:51;;;;;;;2.85;0.22;;;15.00;99.90;13.60;98558.00;;;;5003340;28;82653;-65
2022/09/27 11:06:23;;;;;;;0.10;0.10;;;14.10;99.90;13.00;98553.00;;;;5004131;28;82966;-67
2022/09/27 11:08:54;;;;;;;0.00;0.00;;;13.40;99.90;12.50;98552.00;;;;5001188;28;90787;-66
2022/09/27 11:11:26;;;;;;;0.07;0.07;;;12.90;99.90;12.20;98546.00;;;;5006926;28;82379;-65
2022/09/27 11:14:03;;;;;;;0.10;0.10;;;12.40;99.90;12.30;98550.00;;;;5014708;28;96653;-65
2022/09/27 11:17:05;;;;;;;0.10;0.10;;;12.40;99.90;12.40;98556.00;;;;5004879;28;83747;-66
2022/09/27 11:19:48;;;;;;;0.20;0.20;;;12.40;99.90;12.50;98555.00;;;;5006395;28;103817;-66
2022/09/27 11:23:08;;;;;;;0.33;0.33;;;12.40;99.90;12.50;98554.00;;;;5020738;27;83519;-65